KBTV/BTV METAR and TAF weather

Enter ICAO airport designator
Station Type Date Time Source
KBTV METAR 2018/10/21 04:54 UTC NOAA

KBTV 210454Z AUTO 34008G22KT 10SM BKN070 07/M02 A2967 RMK AO2 SLP047 T00721022 401720072


Station Type Date Time Source
KBTV Decoded METAR 2018/10/21 04:54 UTC NOAA

BURLINGTON INTERNATIONAL, VT, United States (KBTV) 44-28N 73-09W 105M
Oct 21, 2018 - 12:54 AM EDT / 2018.10.21 0454 UTC
Wind: from the NNW (340 degrees) at 9 MPH (8 KT) gusting to 25 MPH (22 KT):0
Visibility: 10 mile(s):0
Sky conditions: mostly cloudy
Temperature: 45.0 F (7.2 C)
Dew Point: 28.0 F (-2.2 C)
Relative Humidity: 51%
Pressure (altimeter): 29.67 in. Hg (1004 hPa)
ob: KBTV 210454Z AUTO 34008G22KT 10SM BKN070 07/M02 A2967 RMK AO2 SLP047 T00721022 401720072
cycle: 5

Station Type Date Time Source
KBTV TAF 2018/10/21 06:45 UTC NOAA

TAF KBTV 210543Z 2106/2206 33008G22KT P6SM BKN070
FM211300 32011G18KT P6SM BKN060
FM220200 30006KT P6SM FEW110


Example: see airport list